createdAt,value
2018-12-14T00:01:05.094Z,100894.49
2018-12-14T00:03:32.520Z,100901.03
2018-12-14T00:05:59.947Z,100901.17
2018-12-14T00:08:27.480Z,100907.16
2018-12-14T00:10:54.907Z,100903.41
2018-12-14T00:13:22.359Z,100906.33
2018-12-14T00:15:50.242Z,100902.67
2018-12-14T00:18:17.720Z,100896.15
2018-12-14T00:20:45.193Z,100900.73
2018-12-14T00:23:12.681Z,100894.36
2018-12-14T00:25:40.919Z,100893.53
2018-12-14T00:28:08.360Z,100901.32
2018-12-14T00:30:36.153Z,100899.89
2018-12-14T00:33:03.578Z,100896.70
2018-12-14T00:35:31.259Z,100897.50
2018-12-14T00:37:58.691Z,100900.27
2018-12-14T00:40:26.175Z,100896.84
2018-12-14T00:42:53.693Z,100894.90
2018-12-14T00:45:21.123Z,100903.05
2018-12-14T00:47:48.648Z,100906.11
2018-12-14T00:50:16.093Z,100913.08
2018-12-14T00:52:43.578Z,100913.98
2018-12-14T00:55:11.022Z,100912.39
2018-12-14T00:57:38.443Z,100920.19
2018-12-14T01:00:05.881Z,100924.67
2018-12-14T01:02:33.315Z,100923.14
2018-12-14T01:05:00.760Z,100926.33
2018-12-14T01:07:28.187Z,100924.57
2018-12-14T01:09:55.616Z,100931.73
2018-12-14T01:12:23.035Z,100924.59
2018-12-14T01:14:50.463Z,100928.12
2018-12-14T01:17:17.931Z,100925.03
2018-12-14T01:19:45.368Z,100925.41
2018-12-14T01:22:12.786Z,100923.89
2018-12-14T01:24:40.220Z,100926.42
2018-12-14T01:27:07.656Z,100924.72
2018-12-14T01:29:35.122Z,100925.13
2018-12-14T01:32:02.567Z,100921.30
2018-12-14T01:34:30.084Z,100918.15
2018-12-14T01:36:57.504Z,100926.55
2018-12-14T01:39:24.933Z,100929.62
2018-12-14T01:41:52.351Z,100931.66
2018-12-14T01:44:19.795Z,100924.32
2018-12-14T01:46:47.225Z,100921.43
2018-12-14T01:49:14.675Z,100921.21
2018-12-14T01:51:42.099Z,100919.42
2018-12-14T01:54:09.527Z,100918.31
2018-12-14T01:56:36.955Z,100917.64
2018-12-14T01:59:04.389Z,100912.90
2018-12-14T02:01:32.179Z,100919.14
2018-12-14T02:03:59.603Z,100916.78
2018-12-14T02:06:27.085Z,100922.48
2018-12-14T02:08:54.515Z,100916.49
2018-12-14T02:11:21.999Z,100916.11
2018-12-14T02:13:49.432Z,100917.61
2018-12-14T02:16:16.856Z,100917.12
2018-12-14T02:18:44.283Z,100909.92
2018-12-14T02:21:11.717Z,100911.05
2018-12-14T02:23:39.148Z,100903.20
2018-12-14T02:26:06.651Z,100910.69
2018-12-14T02:28:34.087Z,100903.91
2018-12-14T02:31:01.519Z,100903.91
2018-12-14T02:33:28.944Z,100906.71
2018-12-14T02:35:56.371Z,100910.31
2018-12-14T02:38:23.792Z,100909.67
2018-12-14T02:40:51.291Z,100910.20
2018-12-14T02:43:20.163Z,100903.81
2018-12-14T02:45:47.606Z,100907.45
2018-12-14T02:48:15.028Z,100905.70
2018-12-14T02:50:42.539Z,100912.22
2018-12-14T02:53:09.959Z,100906.44
2018-12-14T02:55:37.393Z,100907.45
2018-12-14T02:58:04.820Z,100905.34
2018-12-14T03:00:32.253Z,100907.99
2018-12-14T03:03:00.302Z,100906.64
2018-12-14T03:05:27.745Z,100907.89
2018-12-14T03:07:55.172Z,100904.83
2018-12-14T03:10:22.617Z,100908.14
2018-12-14T03:12:50.055Z,100897.20
2018-12-14T03:15:17.480Z,100900.99
2018-12-14T03:17:44.906Z,100901.55
2018-12-14T03:20:12.327Z,100895.99
2018-12-14T03:22:39.880Z,100902.56
2018-12-14T03:25:07.326Z,100899.58
2018-12-14T03:27:34.821Z,100900.14
2018-12-14T03:30:02.256Z,100901.75
2018-12-14T03:32:29.684Z,100904.19
2018-12-14T03:34:57.194Z,100896.12
2018-12-14T03:37:24.656Z,100896.08
2018-12-14T03:39:52.152Z,100899.45
2018-12-14T03:42:19.590Z,100901.53
2018-12-14T03:44:47.030Z,100899.99
2018-12-14T03:47:14.453Z,100900.20
2018-12-14T03:49:41.875Z,100899.25
2018-12-14T03:52:09.402Z,100908.83
2018-12-14T03:54:36.967Z,100904.83
2018-12-14T03:57:04.388Z,100903.41
2018-12-14T03:59:31.836Z,100908.31
2018-12-14T04:01:59.277Z,100908.16
2018-12-14T04:04:26.690Z,100910.23
2018-12-14T04:06:54.124Z,100910.46
2018-12-14T04:09:21.613Z,100914.66
2018-12-14T04:11:49.048Z,100920.08
2018-12-14T04:14:16.517Z,100916.34
2018-12-14T04:16:43.950Z,100917.88
2018-12-14T04:19:11.395Z,100916.11
2018-12-14T04:21:38.914Z,100927.35
2018-12-14T04:24:06.946Z,100916.47
2018-12-14T04:26:34.383Z,100917.45
2018-12-14T04:29:01.883Z,100920.52
2018-12-14T04:31:29.318Z,100924.78
2018-12-14T04:33:56.741Z,100921.20
2018-12-14T04:36:24.255Z,100924.72
2018-12-14T04:38:51.680Z,100928.22
2018-12-14T04:41:19.160Z,100921.22
2018-12-14T04:43:46.592Z,100926.97
2018-12-14T04:46:14.078Z,100932.97
2018-12-14T04:48:41.512Z,100926.45
2018-12-14T04:51:08.955Z,100924.95
2018-12-14T04:53:36.375Z,100923.23
2018-12-14T04:56:03.802Z,100921.42
2018-12-14T04:58:31.241Z,100920.98
2018-12-14T05:00:58.730Z,100913.41
2018-12-14T05:03:26.184Z,100920.36
2018-12-14T05:05:53.641Z,100918.67
2018-12-14T05:08:21.087Z,100922.27
2018-12-14T05:10:48.518Z,100923.77
2018-12-14T05:13:15.939Z,100929.18
2018-12-14T05:15:43.379Z,100926.78
2018-12-14T05:18:10.827Z,100923.00
2018-12-14T05:20:38.264Z,100918.82
2018-12-14T05:23:05.684Z,100921.52
2018-12-14T05:25:33.205Z,100925.45
2018-12-14T05:28:00.641Z,100919.48
2018-12-14T05:30:28.116Z,100926.08
2018-12-14T05:32:55.553Z,100924.27
2018-12-14T05:35:23.021Z,100927.12
2018-12-14T05:37:50.511Z,100931.45
2018-12-14T05:40:17.948Z,100930.88
2018-12-14T05:42:45.403Z,100927.33
2018-12-14T05:45:12.857Z,100929.53
2018-12-14T05:47:40.291Z,100931.59
2018-12-14T05:50:07.708Z,100928.64
2018-12-14T05:52:35.145Z,100931.30
2018-12-14T05:55:02.585Z,100938.58
2018-12-14T05:57:30.040Z,100938.05
2018-12-14T05:59:57.462Z,100935.65
2018-12-14T06:02:24.942Z,100939.32
2018-12-14T06:04:52.360Z,100937.69
2018-12-14T06:07:19.795Z,100943.38
2018-12-14T06:09:47.214Z,100948.06
2018-12-14T06:12:14.913Z,100947.93
2018-12-14T06:14:42.460Z,100950.48
2018-12-14T06:17:09.903Z,100953.41
2018-12-14T06:19:37.888Z,100957.50
2018-12-14T06:22:05.324Z,100951.39
2018-12-14T06:24:33.266Z,100960.20
2018-12-14T06:27:00.695Z,100958.40
2018-12-14T06:29:28.123Z,100956.55
2018-12-14T06:31:55.575Z,100951.29
2018-12-14T06:34:23.003Z,100964.91
2018-12-14T06:36:51.083Z,100968.83
2018-12-14T06:39:18.754Z,100968.09
2018-12-14T06:41:46.508Z,100976.83
2018-12-14T06:44:14.314Z,100974.81
2018-12-14T06:46:41.739Z,100982.08
2018-12-14T06:49:09.166Z,100976.99
2018-12-14T06:51:37.556Z,100978.27
2018-12-14T06:54:05.212Z,100981.19
2018-12-14T06:56:32.628Z,100981.55
2018-12-14T06:59:00.051Z,100985.36
2018-12-14T07:01:27.484Z,100988.89
2018-12-14T07:03:54.907Z,100986.09
2018-12-14T07:06:22.374Z,100989.64
2018-12-14T07:08:49.808Z,100991.77
2018-12-14T07:11:17.242Z,100991.94
2018-12-14T07:13:44.663Z,100993.37
2018-12-14T07:16:12.082Z,100997.58
2018-12-14T07:18:39.507Z,100992.20
2018-12-14T07:21:06.947Z,100987.70
2018-12-14T07:23:34.414Z,100997.38
2018-12-14T07:26:01.851Z,101002.07
2018-12-14T07:28:29.287Z,101002.22
2018-12-14T07:30:56.711Z,101003.96
2018-12-14T07:33:24.140Z,101008.42
2018-12-14T07:35:51.567Z,101010.23
2018-12-14T07:38:19.007Z,101010.36
2018-12-14T07:40:46.445Z,101004.72
2018-12-14T07:43:13.867Z,101014.55
2018-12-14T07:45:41.295Z,101023.09
2018-12-14T07:48:08.802Z,101022.58
2018-12-14T07:50:36.225Z,101024.52
2018-12-14T07:53:09.120Z,101022.72
2018-12-14T07:55:33.130Z,101018.98
2018-12-14T07:58:00.566Z,101019.13
2018-12-14T08:00:27.987Z,101013.73
2018-12-14T08:02:55.494Z,101024.44
2018-12-14T08:05:23.082Z,101031.56
2018-12-14T08:07:50.526Z,101029.69
2018-12-14T08:10:18.014Z,101025.46
2018-12-14T08:12:45.487Z,101027.59
2018-12-14T08:15:13.151Z,101033.11
2018-12-14T08:17:40.599Z,101041.66
2018-12-14T08:20:08.040Z,101037.31
2018-12-14T08:22:35.466Z,101029.95
2018-12-14T08:25:02.885Z,101037.30
2018-12-14T08:27:30.386Z,101041.49
2018-12-14T08:29:57.803Z,101041.72
2018-12-14T08:32:25.244Z,101048.45
2018-12-14T08:34:52.679Z,101049.47
2018-12-14T08:37:20.118Z,101058.73
2018-12-14T08:39:47.554Z,101060.30
2018-12-14T08:42:15.112Z,101064.14
2018-12-14T08:44:42.545Z,101074.72
2018-12-14T08:47:10.040Z,101067.29
2018-12-14T08:49:37.479Z,101065.17
2018-12-14T08:52:04.972Z,101065.56
2018-12-14T08:54:32.412Z,101073.05
2018-12-14T08:56:59.849Z,101076.05
2018-12-14T08:59:27.276Z,101079.03
2018-12-14T09:01:54.717Z,101075.59
2018-12-14T09:04:22.145Z,101078.38
2018-12-14T09:06:49.603Z,101078.45
2018-12-14T09:09:17.023Z,101077.59
2018-12-14T09:11:44.451Z,101079.25
2018-12-14T09:14:11.895Z,101077.06
2018-12-14T09:16:39.333Z,101080.59
2018-12-14T09:19:07.798Z,101076.75
2018-12-14T09:21:35.263Z,101089.88
2018-12-14T09:24:02.723Z,101086.31
2018-12-14T09:26:30.156Z,101084.92
2018-12-14T09:28:57.926Z,101084.19
2018-12-14T09:31:25.500Z,101081.77
2018-12-14T09:33:52.935Z,101084.52
2018-12-14T09:36:20.372Z,101073.25
2018-12-14T09:38:47.808Z,101082.51
2018-12-14T09:41:16.332Z,101083.47
2018-12-14T09:43:43.944Z,101082.48
2018-12-14T09:46:11.375Z,101082.56
2018-12-14T09:48:38.811Z,101087.03
2018-12-14T09:51:12.161Z,101084.27
2018-12-14T09:53:35.644Z,101092.15
2018-12-14T09:56:03.161Z,101101.84
2018-12-14T09:58:30.612Z,101101.09
2018-12-14T10:00:58.047Z,101093.73
2018-12-14T10:03:25.489Z,101096.29
2018-12-14T10:05:52.911Z,101100.97
2018-12-14T10:08:20.382Z,101097.25
2018-12-14T10:10:48.051Z,101094.95
2018-12-14T10:13:15.736Z,101092.06
2018-12-14T10:15:43.171Z,101092.46
2018-12-14T10:18:10.599Z,101094.66
2018-12-14T10:20:38.036Z,101080.59
2018-12-14T10:23:05.500Z,101087.30
2018-12-14T10:25:32.918Z,101086.59
2018-12-14T10:28:00.370Z,101087.00
2018-12-14T10:30:28.491Z,101092.05
2018-12-14T10:32:56.044Z,101085.98
2018-12-14T10:35:23.479Z,101089.79
2018-12-14T10:37:50.911Z,101094.98
2018-12-14T10:40:18.415Z,101083.44
2018-12-14T10:42:45.885Z,101079.77
2018-12-14T10:45:13.327Z,101074.03
2018-12-14T10:47:40.792Z,101083.63
2018-12-14T10:50:08.227Z,101081.66
2018-12-14T10:52:35.811Z,101079.06
2018-12-14T10:55:03.247Z,101076.03
2018-12-14T10:57:30.807Z,101078.08
2018-12-14T10:59:58.247Z,101070.52
2018-12-14T11:02:25.739Z,101078.27
2018-12-14T11:04:53.172Z,101080.67
2018-12-14T14:01:19.704Z,101106.02
2018-12-14T14:03:47.273Z,101105.20
2018-12-14T14:06:14.706Z,101108.98
2018-12-14T14:08:42.147Z,101103.34
2018-12-14T14:11:09.604Z,101098.14
2018-12-14T14:13:37.046Z,101103.70
2018-12-14T14:16:04.559Z,101103.86
2018-12-14T14:18:31.993Z,101106.00
2018-12-14T14:20:59.461Z,101116.81
2018-12-14T14:23:26.892Z,101108.34
2018-12-14T14:25:54.352Z,101110.13
2018-12-14T14:28:22.107Z,101112.75
2018-12-14T14:30:49.548Z,101115.17
2018-12-14T14:33:16.988Z,101119.13
2018-12-14T14:35:44.418Z,101122.22
2018-12-14T14:38:11.844Z,101122.30
2018-12-14T14:40:39.277Z,101127.44
2018-12-14T14:43:06.716Z,101130.38
2018-12-14T14:45:34.152Z,101134.23
2018-12-14T14:48:01.686Z,101129.34
2018-12-14T14:50:29.100Z,101137.03
2018-12-14T14:52:56.533Z,101146.67
2018-12-14T14:55:23.968Z,101145.84
2018-12-14T14:57:51.766Z,101151.80
2018-12-14T15:00:19.201Z,101153.16
2018-12-14T15:02:46.640Z,101155.69
2018-12-14T15:05:14.084Z,101153.07
2018-12-14T15:07:41.561Z,101157.18
2018-12-14T15:10:09.002Z,101156.73
2018-12-14T15:12:36.471Z,101155.41
2018-12-14T15:15:06.765Z,101157.00
2018-12-14T15:17:33.313Z,101163.86
2018-12-14T15:20:00.758Z,101158.79
2018-12-14T15:22:28.176Z,101169.89
2018-12-14T15:24:55.604Z,101164.55
2018-12-14T15:27:23.040Z,101171.01
2018-12-14T15:29:50.476Z,101164.64
2018-12-14T15:32:18.456Z,101170.02
2018-12-14T15:34:45.892Z,101175.64
2018-12-14T15:37:13.322Z,101175.58
2018-12-14T15:39:40.755Z,101178.88
2018-12-14T15:42:08.209Z,101177.37
2018-12-14T15:44:35.712Z,101182.47
2018-12-14T15:47:03.193Z,101185.47
2018-12-14T15:49:30.631Z,101184.82
2018-12-14T15:51:58.082Z,101184.20
2018-12-14T15:54:25.515Z,101182.17
2018-12-14T15:56:52.940Z,101186.84
2018-12-14T15:59:21.091Z,101186.15
2018-12-14T16:01:48.801Z,101186.63
2018-12-14T16:04:16.250Z,101190.59
2018-12-14T16:06:43.692Z,101190.34
2018-12-14T16:09:11.129Z,101189.15
2018-12-14T16:11:38.572Z,101190.73
2018-12-14T16:14:06.248Z,101199.80
2018-12-14T16:16:33.689Z,101200.70
2018-12-14T16:19:01.194Z,101196.73
2018-12-14T16:21:28.649Z,101197.38
2018-12-14T16:23:56.085Z,101201.67
2018-12-14T16:26:23.516Z,101207.61
2018-12-14T16:28:51.002Z,101198.75
2018-12-14T16:31:18.473Z,101201.67
2018-12-14T16:33:45.908Z,101197.84
2018-12-14T16:36:13.463Z,101199.89
2018-12-14T16:38:40.899Z,101203.76
2018-12-14T16:41:08.325Z,101203.34
2018-12-14T16:43:35.766Z,101205.27
2018-12-14T16:46:03.208Z,101203.70
2018-12-14T16:48:30.658Z,101200.77
2018-12-14T16:50:58.092Z,101205.78
2018-12-14T16:53:25.519Z,101207.38
2018-12-14T16:55:52.961Z,101209.41
2018-12-14T16:58:20.470Z,101212.91
2018-12-14T17:00:47.927Z,101207.30
2018-12-14T17:03:15.368Z,101206.59
2018-12-14T17:05:42.809Z,101206.83
2018-12-14T17:08:10.288Z,101212.44
2018-12-14T17:10:37.724Z,101209.85
2018-12-14T17:13:05.158Z,101214.19
2018-12-14T17:15:33.387Z,101205.78
2018-12-14T17:18:01.215Z,101209.61
2018-12-14T17:20:28.665Z,101215.98
2018-12-14T17:22:56.103Z,101207.95
2018-12-14T17:25:23.525Z,101211.02
2018-12-14T17:27:50.962Z,101210.65
2018-12-14T17:30:18.393Z,101208.48
2018-12-14T17:32:45.836Z,101213.05
2018-12-14T17:35:13.272Z,101207.53
2018-12-14T17:37:40.702Z,101207.44
2018-12-14T17:40:08.144Z,101205.80
2018-12-14T17:42:35.590Z,101205.92
2018-12-14T17:45:03.033Z,101205.13
2018-12-14T17:47:30.468Z,101216.22
2018-12-14T17:49:57.908Z,101215.75
2018-12-14T17:52:25.425Z,101213.58
2018-12-14T17:54:52.874Z,101218.30
2018-12-14T17:57:20.312Z,101219.05
2018-12-14T17:59:47.745Z,101217.78
2018-12-14T18:02:15.223Z,101214.71
2018-12-14T18:04:42.707Z,101209.47
2018-12-14T18:07:10.142Z,101209.09
2018-12-14T18:09:37.568Z,101215.38
2018-12-14T18:12:05.045Z,101218.71
2018-12-14T18:14:32.485Z,101216.13
2018-12-14T18:16:59.937Z,101221.64
2018-12-14T18:19:27.380Z,101222.77
2018-12-14T18:21:54.812Z,101217.54
2018-12-14T18:24:22.242Z,101225.18
2018-12-14T18:26:49.675Z,101224.77
2018-12-14T18:29:17.113Z,101225.19
2018-12-14T18:31:44.546Z,101225.18
2018-12-14T18:34:11.997Z,101235.19
2018-12-14T18:36:39.437Z,101232.41
2018-12-14T18:39:06.872Z,101238.64
2018-12-14T18:41:34.316Z,101232.06
2018-12-14T18:44:01.914Z,101235.89
2018-12-14T18:46:29.318Z,101240.71
2018-12-14T18:48:56.749Z,101239.44
2018-12-14T18:51:24.190Z,101246.33
2018-12-14T18:53:56.236Z,101249.11
2018-12-14T18:56:23.809Z,101254.21
2018-12-14T18:58:51.318Z,101253.45
2018-12-14T19:01:18.790Z,101259.55
2018-12-14T19:03:46.226Z,101265.44
2018-12-14T19:06:13.665Z,101269.50
2018-12-14T19:08:41.100Z,101269.12
2018-12-14T19:11:08.528Z,101264.92
2018-12-14T19:13:35.969Z,101267.98
2018-12-14T19:16:03.402Z,101271.29
2018-12-14T19:18:30.843Z,101277.14
2018-12-14T19:20:58.285Z,101274.88
2018-12-14T19:23:25.737Z,101279.97
2018-12-14T19:25:53.240Z,101277.17
2018-12-14T19:28:20.687Z,101275.88
2018-12-14T19:30:48.121Z,101277.42
2018-12-14T19:33:15.565Z,101279.55
2018-12-14T19:35:43.017Z,101282.86
2018-12-14T19:38:10.526Z,101272.33
2018-12-14T19:40:37.950Z,101276.63
2018-12-14T19:43:05.414Z,101281.34
2018-12-14T19:45:32.857Z,101281.11
2018-12-14T19:48:00.288Z,101285.30
2018-12-14T19:50:27.725Z,101289.92
2018-12-14T19:52:55.162Z,101294.73
2018-12-14T19:55:22.600Z,101291.95
2018-12-14T19:57:50.033Z,101298.05
2018-12-14T20:00:17.459Z,101296.41
2018-12-14T20:02:44.905Z,101305.81
2018-12-14T20:05:12.347Z,101300.09
2018-12-14T20:07:39.781Z,101305.19
2018-12-14T20:10:07.212Z,101302.76
2018-12-14T20:12:34.652Z,101303.68
2018-12-14T20:15:02.161Z,101304.92
2018-12-14T20:17:29.617Z,101306.07
2018-12-14T20:19:57.122Z,101304.93
2018-12-14T20:24:58.657Z,101305.96
2018-12-14T20:27:26.101Z,101308.88
2018-12-14T20:29:53.557Z,101310.05
2018-12-14T20:32:21.016Z,101314.11
2018-12-14T20:34:48.449Z,101310.80
2018-12-14T20:37:15.902Z,101315.37
2018-12-14T20:39:43.334Z,101313.45
2018-12-14T20:42:10.787Z,101314.09
2018-12-14T20:44:38.224Z,101320.22
2018-12-14T20:47:05.649Z,101310.53
2018-12-14T20:49:33.101Z,101317.16
2018-12-14T20:52:00.540Z,101309.39
2018-12-14T20:54:28.060Z,101317.30
2018-12-14T20:56:55.522Z,101316.64
2018-12-14T20:59:22.952Z,101309.89
2018-12-14T21:01:50.396Z,101313.34
2018-12-14T21:04:17.850Z,101317.42
2018-12-14T21:06:45.300Z,101318.42
2018-12-14T21:09:12.756Z,101316.39
2018-12-14T21:11:40.245Z,101310.77
2018-12-14T21:14:07.693Z,101313.33
2018-12-14T21:16:35.130Z,101310.30
2018-12-14T21:19:02.584Z,101310.14
2018-12-14T21:21:30.074Z,101315.36
2018-12-14T21:23:57.549Z,101306.70
2018-12-14T21:26:24.978Z,101316.91
2018-12-14T21:28:52.444Z,101309.27
2018-12-14T21:31:19.877Z,101318.92
2018-12-14T21:33:47.313Z,101315.39
2018-12-14T21:36:14.752Z,101323.51
2018-12-14T21:38:42.192Z,101324.41
2018-12-14T21:41:09.641Z,101332.95
2018-12-14T21:43:37.082Z,101323.88
2018-12-14T21:46:04.525Z,101322.50
2018-12-14T21:48:31.982Z,101327.45
2018-12-14T21:50:59.429Z,101330.38
2018-12-14T21:53:26.873Z,101333.56
2018-12-14T21:55:54.307Z,101328.09
2018-12-14T21:58:21.748Z,101329.09
2018-12-14T22:00:49.264Z,101326.18
2018-12-14T22:03:16.706Z,101335.47
2018-12-14T22:05:44.143Z,101334.18
2018-12-14T22:08:11.581Z,101338.52
2018-12-14T22:10:39.018Z,101333.81
2018-12-14T22:13:06.449Z,101337.01
2018-12-14T22:15:33.885Z,101338.41
2018-12-14T22:18:01.345Z,101333.17
2018-12-14T22:20:28.777Z,101339.66
2018-12-14T22:22:56.221Z,101336.23
2018-12-14T22:25:23.685Z,101340.27
2018-12-14T22:27:52.189Z,101345.25
2018-12-14T22:30:19.757Z,101346.91
2018-12-14T22:32:47.209Z,101339.77
2018-12-14T22:35:14.680Z,101340.28
2018-12-14T22:37:42.117Z,101342.81
2018-12-14T22:40:09.560Z,101341.03
2018-12-14T22:42:36.994Z,101347.16
2018-12-14T22:45:04.436Z,101332.52
2018-12-14T22:47:31.881Z,101331.11
2018-12-14T22:49:59.330Z,101331.36
2018-12-14T22:52:26.769Z,101327.56
2018-12-14T22:54:54.350Z,101328.70
2018-12-14T22:57:21.790Z,101333.91
2018-12-14T22:59:49.226Z,101334.91
2018-12-14T23:02:16.652Z,101326.66
2018-12-14T23:04:44.115Z,101325.89
2018-12-14T23:07:11.557Z,101331.87
2018-12-14T23:09:38.998Z,101337.59
2018-12-14T23:12:06.436Z,101334.13
2018-12-14T23:14:33.935Z,101343.06
2018-12-14T23:17:01.397Z,101338.23
2018-12-14T23:19:28.834Z,101330.20
2018-12-14T23:21:56.264Z,101335.27
2018-12-14T23:24:23.698Z,101348.05
2018-12-14T23:26:51.184Z,101334.95
2018-12-14T23:29:18.635Z,101336.70
2018-12-14T23:31:46.065Z,101339.77
2018-12-14T23:34:13.500Z,101331.59
2018-12-14T23:36:40.942Z,101334.42
2018-12-14T23:39:08.385Z,101338.87
2018-12-14T23:41:35.825Z,101330.95
2018-12-14T23:44:03.256Z,101334.80
2018-12-14T23:46:30.689Z,101338.37
2018-12-14T23:48:58.137Z,101332.37
2018-12-14T23:51:25.572Z,101340.77
2018-12-14T23:53:53.031Z,101332.61
2018-12-14T23:56:20.464Z,101339.34
2018-12-14T23:58:47.901Z,101336.42
